createdAt,value
2023-12-23T00:00:33.790Z,97610.34
2023-12-23T00:03:02.287Z,97573.84
2023-12-23T00:05:29.996Z,97591.19
2023-12-23T00:07:58.059Z,97598.25
2023-12-23T00:10:25.747Z,97605.69
2023-12-23T00:12:53.265Z,97589.28
2023-12-23T00:15:20.748Z,97559.97
2023-12-23T00:17:50.684Z,97577.50
2023-12-23T00:20:19.026Z,97597.66
2023-12-23T00:22:47.129Z,97595.66
2023-12-23T00:25:14.915Z,97604.06
2023-12-23T00:27:42.469Z,97583.28
2023-12-23T00:30:10.757Z,97568.63
2023-12-23T00:32:38.523Z,97584.56
2023-12-23T00:35:06.510Z,97589.09
2023-12-23T00:37:34.322Z,97596.53
2023-12-23T00:40:02.311Z,97531.13
2023-12-23T00:42:32.349Z,97592.53
2023-12-23T00:44:59.952Z,97592.81
2023-12-23T00:47:32.183Z,97582.44
2023-12-23T00:50:02.510Z,97544.59
2023-12-23T00:52:33.199Z,97559.97
2023-12-23T00:55:03.845Z,97578.72
2023-12-23T00:57:33.173Z,97530.34
2023-12-23T01:00:00.726Z,97570.91
2023-12-23T01:02:28.333Z,97573.63
2023-12-23T01:04:56.223Z,97560.88
2023-12-23T01:07:24.334Z,97505.94
2023-12-23T01:09:51.933Z,97545.22
2023-12-23T01:12:19.519Z,97546.28
2023-12-23T01:14:47.090Z,97568.13
2023-12-23T01:17:15.015Z,97556.47
2023-12-23T01:19:42.511Z,97546.63
2023-12-23T01:22:10.311Z,97528.03
2023-12-23T01:24:37.804Z,97550.50
2023-12-23T01:27:05.447Z,97540.41
2023-12-23T01:29:32.864Z,97534.28
2023-12-23T01:32:00.472Z,97527.59
2023-12-23T01:34:28.509Z,97539.72
2023-12-23T01:36:57.375Z,97504.59
2023-12-23T01:39:25.430Z,97538.59
2023-12-23T01:41:53.213Z,97486.28
2023-12-23T01:44:20.923Z,97506.19
2023-12-23T01:46:49.467Z,97510.66
2023-12-23T01:49:17.530Z,97513.44
2023-12-23T01:51:45.216Z,97463.66
2023-12-23T01:54:13.041Z,97510.59
2023-12-23T01:56:41.128Z,97499.72
2023-12-23T01:59:08.984Z,97510.66
2023-12-23T02:01:38.098Z,97476.00
2023-12-23T02:04:05.841Z,97449.66
2023-12-23T02:06:33.379Z,97468.16
2023-12-23T02:09:02.529Z,97468.84
2023-12-23T02:11:49.264Z,97454.09
2023-12-23T02:14:51.547Z,97485.22
2023-12-23T02:17:19.653Z,97467.75
2023-12-23T02:20:07.975Z,97449.13
2023-12-23T02:22:36.225Z,97458.38
2023-12-23T02:25:04.304Z,97463.38
2023-12-23T02:27:46.387Z,97473.81
2023-12-23T02:30:16.849Z,97443.19
2023-12-23T02:32:46.410Z,97445.00
2023-12-23T02:35:14.482Z,97447.47
2023-12-23T02:37:43.392Z,97448.53
2023-12-23T02:40:12.261Z,97469.97
2023-12-23T02:42:40.138Z,97433.25
2023-12-23T02:45:08.499Z,97452.16
2023-12-23T02:47:36.225Z,97461.19
2023-12-23T02:50:04.081Z,97462.72
2023-12-23T02:52:33.473Z,97455.13
2023-12-23T02:55:01.496Z,97435.91
2023-12-23T02:57:31.584Z,97450.50
2023-12-23T02:59:59.008Z,97444.63
2023-12-23T03:02:26.609Z,97412.78
2023-12-23T03:04:54.247Z,97407.03
2023-12-23T03:07:21.919Z,97442.78
2023-12-23T03:09:49.374Z,97441.91
2023-12-23T03:12:17.230Z,97397.75
2023-12-23T03:14:45.025Z,97433.69
2023-12-23T03:17:12.644Z,97425.09
2023-12-23T03:19:42.685Z,97387.66
2023-12-23T03:22:10.290Z,97369.41
2023-12-23T03:24:37.668Z,97410.69
2023-12-23T03:27:05.404Z,97315.16
2023-12-23T03:29:32.920Z,97383.00
2023-12-23T03:32:00.445Z,97396.22
2023-12-23T03:34:27.953Z,97424.22
2023-12-23T03:36:56.072Z,97431.13
2023-12-23T03:39:23.738Z,97421.13
2023-12-23T03:41:51.212Z,97411.38
2023-12-23T03:44:20.690Z,97409.81
2023-12-23T03:46:48.726Z,97422.56
2023-12-23T03:49:16.390Z,97406.53
2023-12-23T03:51:44.000Z,97391.84
2023-12-23T03:54:11.412Z,97402.34
2023-12-23T03:56:39.015Z,97389.56
2023-12-23T03:59:06.511Z,97397.28
2023-12-23T04:01:34.410Z,97367.69
2023-12-23T04:04:02.217Z,97394.69
2023-12-23T04:06:29.761Z,97382.69
2023-12-23T04:08:57.488Z,97386.69
2023-12-23T04:11:24.960Z,97358.03
2023-12-23T04:13:52.810Z,97356.63
2023-12-23T04:16:21.450Z,97385.53
2023-12-23T04:18:49.345Z,97381.28
2023-12-23T04:21:16.866Z,97370.00
2023-12-23T04:23:44.714Z,97338.34
2023-12-23T04:26:15.353Z,97381.78
2023-12-23T04:28:44.054Z,97342.59
2023-12-23T04:31:11.877Z,97382.75
2023-12-23T04:33:40.088Z,97389.75
2023-12-23T04:36:08.427Z,97393.88
2023-12-23T04:38:36.777Z,97393.69
2023-12-23T04:41:04.598Z,97375.97
2023-12-23T04:43:35.105Z,97391.75
2023-12-23T04:46:03.166Z,97351.78
2023-12-23T04:48:30.686Z,97384.22
2023-12-23T04:50:59.973Z,97372.25
2023-12-23T04:53:27.565Z,97393.50
2023-12-23T04:55:55.243Z,97392.47
2023-12-23T04:58:23.836Z,97378.78
2023-12-23T05:00:51.395Z,97391.19
2023-12-23T05:03:19.165Z,97391.63
2023-12-23T05:05:46.961Z,97384.31
2023-12-23T05:08:18.217Z,97356.47
2023-12-23T05:10:47.127Z,97380.31
2023-12-23T05:13:16.066Z,97378.25
2023-12-23T05:15:43.473Z,97372.91
2023-12-23T05:18:11.373Z,97377.19
2023-12-23T05:20:39.529Z,97366.47
2023-12-23T05:23:07.589Z,97372.28
2023-12-23T05:25:35.760Z,97372.19
2023-12-23T05:28:03.919Z,97305.09
2023-12-23T05:30:31.885Z,97365.84
2023-12-23T05:32:59.707Z,97364.69
2023-12-23T05:35:27.353Z,97356.28
2023-12-23T05:37:54.957Z,97347.72
2023-12-23T05:40:23.656Z,97354.59
2023-12-23T05:42:51.434Z,97358.94
2023-12-23T05:45:19.434Z,97361.47
2023-12-23T05:47:47.136Z,97356.66
2023-12-23T05:50:14.875Z,97360.38
2023-12-23T05:52:42.442Z,97341.34
2023-12-23T05:55:10.026Z,97356.63
2023-12-23T05:57:37.745Z,97351.63
2023-12-23T06:00:07.782Z,97358.41
2023-12-23T06:02:40.984Z,97352.94
2023-12-23T06:05:08.775Z,97339.28
2023-12-23T06:07:36.629Z,97349.19
2023-12-23T06:10:06.318Z,97333.50
2023-12-23T06:12:34.195Z,97278.66
2023-12-23T06:15:01.880Z,97350.91
2023-12-23T06:17:33.162Z,97333.44
2023-12-23T06:20:01.586Z,97340.84
2023-12-23T06:22:31.689Z,97354.03
2023-12-23T06:24:59.156Z,97343.38
2023-12-23T06:27:26.751Z,97349.81
2023-12-23T06:29:54.486Z,97346.38
2023-12-23T06:32:22.264Z,97358.47
2023-12-23T06:34:50.130Z,97343.53
2023-12-23T06:37:18.089Z,97313.81
2023-12-23T06:39:45.659Z,97354.28
2023-12-23T06:42:13.032Z,97352.31
2023-12-23T06:44:40.510Z,97318.69
2023-12-23T06:47:09.340Z,97343.09
2023-12-23T06:49:37.129Z,97352.50
2023-12-23T06:52:05.066Z,97338.41
2023-12-23T06:54:32.549Z,97345.03
2023-12-23T06:57:00.274Z,97338.78
2023-12-23T06:59:27.613Z,97336.53
2023-12-23T07:01:55.140Z,97309.63
2023-12-23T07:04:22.831Z,97315.84
2023-12-23T07:06:51.361Z,97305.53
2023-12-23T07:09:18.879Z,97339.78
2023-12-23T07:11:47.583Z,97340.59
2023-12-23T07:14:15.068Z,97347.59
2023-12-23T07:16:44.078Z,97354.03
2023-12-23T07:19:11.811Z,97309.44
2023-12-23T07:21:39.463Z,97306.66
2023-12-23T07:24:07.225Z,97323.38
2023-12-23T07:26:36.605Z,97345.00
2023-12-23T07:29:05.038Z,97349.72
2023-12-23T07:31:34.172Z,97349.22
2023-12-23T07:34:02.099Z,97343.44
2023-12-23T07:36:29.680Z,97338.97
2023-12-23T07:38:57.885Z,97332.09
2023-12-23T07:41:25.308Z,97346.22
2023-12-23T07:43:53.791Z,97353.81
2023-12-23T07:46:21.453Z,97346.03
2023-12-23T07:48:49.951Z,97364.47
2023-12-23T07:51:20.557Z,97352.50
2023-12-23T07:53:48.301Z,97313.72
2023-12-23T07:56:16.360Z,97331.03
2023-12-23T07:58:44.124Z,97361.31
2023-12-23T08:01:11.652Z,97353.44
2023-12-23T08:03:40.331Z,97346.44
2023-12-23T08:06:07.997Z,97330.78
2023-12-23T08:08:35.778Z,97365.16
2023-12-23T08:11:03.512Z,97377.38
2023-12-23T08:13:31.650Z,97362.41
2023-12-23T08:15:59.761Z,97363.94
2023-12-23T08:18:27.349Z,97371.13
2023-12-23T08:20:56.483Z,97374.97
2023-12-23T08:23:24.676Z,97368.44
2023-12-23T08:25:52.172Z,97367.50
2023-12-23T08:28:19.991Z,97353.31
2023-12-23T08:30:47.750Z,97362.91
2023-12-23T08:33:15.856Z,97356.44
2023-12-23T08:35:45.544Z,97367.34
2023-12-23T08:38:13.539Z,97363.84
2023-12-23T08:40:41.233Z,97353.28
2023-12-23T08:43:08.765Z,97363.31
2023-12-23T08:45:36.428Z,97355.16
2023-12-23T08:48:04.598Z,97362.59
2023-12-23T08:50:32.705Z,97375.78
2023-12-23T08:53:00.274Z,97361.22
2023-12-23T08:55:27.756Z,97371.59
2023-12-23T08:57:55.763Z,97371.03
2023-12-23T09:00:23.381Z,97369.19
2023-12-23T09:02:51.955Z,97372.38
2023-12-23T09:05:20.169Z,97367.97
2023-12-23T09:07:50.269Z,97333.09
2023-12-23T09:10:19.476Z,97367.03
2023-12-23T09:12:47.519Z,97373.25
2023-12-23T09:15:15.341Z,97339.50
2023-12-23T09:17:43.723Z,97358.63
2023-12-23T09:20:12.031Z,97360.63
2023-12-23T09:22:39.795Z,97339.75
2023-12-23T09:25:07.425Z,97368.59
2023-12-23T09:27:34.905Z,97366.03
2023-12-23T09:30:02.484Z,97338.91
2023-12-23T09:32:32.086Z,97365.81
2023-12-23T09:35:01.010Z,97365.81
2023-12-23T09:37:31.274Z,97369.41
2023-12-23T09:40:00.652Z,97367.03
2023-12-23T09:42:29.524Z,97366.19
2023-12-23T09:44:57.735Z,97368.13
2023-12-23T09:47:26.432Z,97338.47
2023-12-23T09:49:54.448Z,97356.56
2023-12-23T09:52:22.368Z,97361.78
2023-12-23T09:54:53.369Z,97356.94
2023-12-23T09:57:21.790Z,97327.88
2023-12-23T09:59:55.593Z,97368.81
2023-12-23T10:02:23.297Z,97365.81
2023-12-23T10:04:51.247Z,97342.72
2023-12-23T10:07:19.456Z,97356.75
2023-12-23T10:09:51.434Z,97355.16
2023-12-23T10:12:19.253Z,97349.38
2023-12-23T10:14:48.704Z,97357.56
2023-12-23T10:17:18.773Z,97355.16
2023-12-23T10:19:49.827Z,97358.97
2023-12-23T10:22:20.284Z,97365.00
2023-12-23T10:24:48.403Z,97356.59
2023-12-23T10:27:19.753Z,97348.50
2023-12-23T10:29:52.978Z,97361.19
2023-12-23T10:32:26.637Z,97364.63
2023-12-23T10:35:00.828Z,97343.97
2023-12-23T10:37:29.901Z,97358.03
2023-12-23T10:40:06.273Z,97355.56
2023-12-23T10:42:36.365Z,97359.94
2023-12-23T10:45:05.753Z,97348.50
2023-12-23T10:47:35.700Z,97353.28
2023-12-23T10:50:04.623Z,97312.44
2023-12-23T10:52:32.720Z,97327.69
2023-12-23T10:55:04.294Z,97349.75
2023-12-23T10:57:37.558Z,97314.84
2023-12-23T11:00:07.265Z,97347.50
2023-12-23T11:02:36.716Z,97337.88
2023-12-23T11:05:08.040Z,97338.09
2023-12-23T11:07:44.392Z,97340.69
2023-12-23T11:10:14.706Z,97325.09
2023-12-23T11:12:44.687Z,97332.16
2023-12-23T11:15:13.170Z,97351.78
2023-12-23T11:17:47.813Z,97323.09
2023-12-23T11:20:34.662Z,97351.19
2023-12-23T11:23:28.514Z,97355.63
2023-12-23T11:25:56.807Z,97351.00
2023-12-23T11:28:29.207Z,97346.00
2023-12-23T11:31:01.809Z,97361.47
2023-12-23T11:33:34.008Z,97359.31
2023-12-23T11:36:03.230Z,97359.72
2023-12-23T11:38:51.482Z,97380.50
2023-12-23T11:41:22.656Z,97364.63
2023-12-23T11:43:51.661Z,97364.59
2023-12-23T11:46:25.462Z,97363.81
2023-12-23T11:48:52.960Z,97354.38
2023-12-23T11:51:20.724Z,97376.63
2023-12-23T11:53:48.859Z,97372.22
2023-12-23T11:56:16.912Z,97384.00
2023-12-23T11:58:44.732Z,97389.66
2023-12-23T12:01:12.238Z,97378.88
2023-12-23T12:03:40.381Z,97392.66
2023-12-23T12:06:08.749Z,97385.09
2023-12-23T12:08:36.970Z,97397.91
2023-12-23T12:11:04.825Z,97390.63
2023-12-23T12:13:35.749Z,97399.09
2023-12-23T12:16:03.744Z,97397.06
2023-12-23T12:18:31.390Z,97405.44
2023-12-23T12:20:59.567Z,97384.72
2023-12-23T12:23:27.700Z,97414.13
2023-12-23T12:25:58.992Z,97416.13
2023-12-23T12:28:27.852Z,97421.25
2023-12-23T12:30:55.755Z,97414.50
2023-12-23T12:33:23.793Z,97418.16
2023-12-23T12:35:51.713Z,97413.91
2023-12-23T12:38:24.158Z,97419.69
2023-12-23T12:40:54.124Z,97407.25
2023-12-23T12:43:24.241Z,97419.28
2023-12-23T12:45:51.749Z,97398.84
2023-12-23T12:48:19.374Z,97416.91
2023-12-23T12:50:48.266Z,97406.88
2023-12-23T12:53:17.184Z,97421.03
2023-12-23T12:55:45.196Z,97337.94
2023-12-23T12:58:13.046Z,97407.34
2023-12-23T13:00:40.701Z,97413.22
2023-12-23T13:03:11.088Z,97409.88
2023-12-23T13:05:39.289Z,97411.69
2023-12-23T13:08:07.519Z,97411.22
2023-12-23T13:10:36.223Z,97415.03
2023-12-23T13:13:03.657Z,97370.13
2023-12-23T13:15:31.205Z,97403.25
2023-12-23T13:17:59.574Z,97387.03
2023-12-23T13:20:27.307Z,97399.47
2023-12-23T13:22:55.324Z,97401.63
2023-12-23T13:25:23.169Z,97400.25
2023-12-23T13:27:50.784Z,97409.63
2023-12-23T13:30:18.649Z,97407.06
2023-12-23T13:32:46.375Z,97411.03
2023-12-23T13:35:14.496Z,97422.84
2023-12-23T13:37:42.111Z,97409.44
2023-12-23T13:40:10.767Z,97414.22
2023-12-23T13:42:39.341Z,97409.66
2023-12-23T13:45:07.846Z,97369.03
2023-12-23T13:47:35.654Z,97403.34
2023-12-23T13:50:04.787Z,97403.31
2023-12-23T13:52:32.675Z,97409.31
2023-12-23T13:55:00.209Z,97404.47
2023-12-23T13:57:28.342Z,97411.50
2023-12-23T13:59:55.812Z,97414.47
2023-12-23T14:02:23.968Z,97399.63
2023-12-23T14:04:51.711Z,97420.06
2023-12-23T14:07:19.222Z,97417.75
2023-12-23T14:09:46.989Z,97424.25
2023-12-23T14:12:14.537Z,97391.00
2023-12-23T14:14:42.388Z,97418.09
2023-12-23T14:17:10.144Z,97416.44
2023-12-23T14:19:37.902Z,97416.81
2023-12-23T14:22:05.346Z,97420.84
2023-12-23T14:24:33.990Z,97390.16
2023-12-23T14:27:02.162Z,97429.88
2023-12-23T14:29:29.688Z,97422.75
2023-12-23T14:31:57.429Z,97424.78
2023-12-23T14:34:25.059Z,97428.97
2023-12-23T14:36:53.281Z,97426.22
2023-12-23T14:39:24.611Z,97433.47
2023-12-23T14:41:52.654Z,97431.03
2023-12-23T14:44:20.057Z,97430.25
2023-12-23T14:46:48.118Z,97421.19
2023-12-23T14:49:15.780Z,97425.41
2023-12-23T14:51:43.633Z,97422.56
2023-12-23T14:54:11.832Z,97423.50
2023-12-23T14:56:39.358Z,97421.88
2023-12-23T14:59:07.203Z,97427.66
2023-12-23T15:01:36.647Z,97433.44
2023-12-23T15:04:06.082Z,97401.22
2023-12-23T15:06:34.231Z,97437.69
2023-12-23T15:09:01.842Z,97402.53
2023-12-23T15:11:29.732Z,97436.97
2023-12-23T15:13:57.373Z,97436.41
2023-12-23T15:16:24.994Z,97439.59
2023-12-23T15:18:56.033Z,97446.78
2023-12-23T15:21:25.598Z,97435.50
2023-12-23T15:23:53.240Z,97421.38
2023-12-23T15:26:20.985Z,97440.84
2023-12-23T15:28:48.976Z,97444.59
2023-12-23T15:31:16.651Z,97448.50
2023-12-23T15:33:44.198Z,97412.34
2023-12-23T15:36:14.193Z,97403.75
2023-12-23T15:38:42.939Z,97442.09
2023-12-23T15:41:10.950Z,97444.91
2023-12-23T15:43:39.855Z,97445.47
2023-12-23T15:46:08.380Z,97442.47
2023-12-23T15:48:36.131Z,97450.84
2023-12-23T15:51:03.912Z,97452.38
2023-12-23T15:53:31.725Z,97440.16
2023-12-23T15:56:02.944Z,97460.06
2023-12-23T15:58:30.591Z,97446.59
2023-12-23T16:00:58.253Z,97444.50
2023-12-23T16:03:26.147Z,97450.31
2023-12-23T16:05:54.199Z,97441.03
2023-12-23T16:08:22.215Z,97412.66
2023-12-23T16:10:50.607Z,97439.75
2023-12-23T16:13:18.149Z,97442.91
2023-12-23T16:15:45.688Z,97446.91
2023-12-23T16:18:13.523Z,97434.16
2023-12-23T16:20:41.943Z,97431.63
2023-12-23T16:23:09.576Z,97428.19
2023-12-23T16:25:37.576Z,97434.97
2023-12-23T16:28:05.192Z,97427.50
2023-12-23T16:30:32.827Z,97443.59
2023-12-23T16:33:00.904Z,97422.25
2023-12-23T16:35:28.810Z,97436.59
2023-12-23T16:37:56.488Z,97411.81
2023-12-23T16:40:23.972Z,97436.53
2023-12-23T16:42:52.171Z,97394.38
2023-12-23T16:45:20.251Z,97431.34
2023-12-23T16:47:48.135Z,97433.44
2023-12-23T16:50:16.570Z,97423.59
2023-12-23T16:52:44.700Z,97375.47
2023-12-23T16:55:12.853Z,97425.59
2023-12-23T16:57:40.840Z,97415.22
2023-12-23T17:00:09.816Z,97375.28
2023-12-23T17:02:37.643Z,97409.13
2023-12-23T17:05:05.856Z,97389.59
2023-12-23T17:07:34.140Z,97415.53
2023-12-23T17:10:01.665Z,97404.25
2023-12-23T17:12:31.513Z,97403.84
2023-12-23T17:15:00.346Z,97396.84
2023-12-23T17:17:28.542Z,97397.84
2023-12-23T17:19:57.523Z,97389.00
2023-12-23T17:22:27.015Z,97390.34
2023-12-23T17:24:55.164Z,97373.75
2023-12-23T17:27:23.057Z,97369.13
2023-12-23T17:29:51.112Z,97341.72
2023-12-23T17:32:18.637Z,97367.63
2023-12-23T17:34:46.008Z,97359.78
2023-12-23T17:37:14.001Z,97364.72
2023-12-23T17:39:41.438Z,97369.16
2023-12-23T17:42:08.900Z,97371.56
2023-12-23T17:44:36.667Z,97352.03
2023-12-23T17:47:05.071Z,97361.81
2023-12-23T17:49:32.764Z,97368.66
2023-12-23T17:52:00.411Z,97357.50
2023-12-23T17:54:28.014Z,97354.75
2023-12-23T17:56:55.592Z,97358.66
2023-12-23T17:59:24.911Z,97351.91
2023-12-23T18:01:52.548Z,97361.56
2023-12-23T18:04:20.353Z,97335.94
2023-12-23T18:06:47.866Z,97354.47
2023-12-23T18:09:15.661Z,97349.66
2023-12-23T18:11:43.131Z,97352.81
2023-12-23T18:14:10.787Z,97346.31
2023-12-23T18:16:38.301Z,97331.34
2023-12-23T18:19:08.026Z,97348.47
2023-12-23T18:21:35.617Z,97349.09
2023-12-23T18:24:03.327Z,97343.03
2023-12-23T18:26:30.902Z,97339.59
2023-12-23T18:28:58.493Z,97330.63
2023-12-23T18:31:26.326Z,97300.72
2023-12-23T18:33:55.806Z,97326.44
2023-12-23T18:36:23.477Z,97301.09
2023-12-23T18:38:51.747Z,97305.50
2023-12-23T18:41:20.543Z,97319.63
2023-12-23T18:43:48.109Z,97319.63
2023-12-23T18:46:15.857Z,97283.06
2023-12-23T18:48:44.186Z,97321.81
2023-12-23T18:51:11.712Z,97320.56
2023-12-23T18:53:39.533Z,97311.84
2023-12-23T18:56:07.809Z,97297.44
2023-12-23T18:58:35.473Z,97303.69
2023-12-23T19:01:04.518Z,97317.97
2023-12-23T19:03:33.188Z,97309.66
2023-12-23T19:06:00.796Z,97305.41
2023-12-23T19:08:28.745Z,97301.56
2023-12-23T19:10:58.469Z,97298.88
2023-12-23T19:13:28.627Z,97304.13
2023-12-23T19:15:56.579Z,97246.94
2023-12-23T19:18:24.149Z,97302.72
2023-12-23T19:20:51.809Z,97273.25
2023-12-23T19:23:20.852Z,97288.88
2023-12-23T19:25:48.430Z,97298.88
2023-12-23T19:28:18.163Z,97294.94
2023-12-23T19:30:46.433Z,97247.50
2023-12-23T19:34:10.931Z,97281.56
2023-12-23T19:36:38.467Z,97290.81
2023-12-23T19:39:06.113Z,97278.78
2023-12-23T19:41:33.844Z,97262.56
2023-12-23T19:44:01.420Z,97274.41
2023-12-23T19:46:37.118Z,97262.06
2023-12-23T19:49:05.221Z,97280.84
2023-12-23T19:51:34.840Z,97253.75
2023-12-23T19:54:02.575Z,97221.06
2023-12-23T19:56:30.939Z,97225.97
2023-12-23T19:58:58.740Z,97259.78
2023-12-23T20:01:26.568Z,97262.38
2023-12-23T20:03:56.576Z,97223.09
2023-12-23T20:06:24.318Z,97247.00
2023-12-23T20:08:52.273Z,97253.38
2023-12-23T20:11:27.101Z,97224.72
2023-12-23T20:13:54.861Z,97204.47
2023-12-23T20:16:26.282Z,97214.28
2023-12-23T20:18:55.487Z,97223.09
2023-12-23T20:21:24.313Z,97225.50
2023-12-23T20:23:52.901Z,97190.09
2023-12-23T20:26:21.049Z,97225.31
2023-12-23T20:28:51.280Z,97221.47
2023-12-23T20:31:19.163Z,97224.25
2023-12-23T20:33:46.978Z,97233.25
2023-12-23T20:36:15.196Z,97233.75
2023-12-23T20:38:42.796Z,97220.59
2023-12-23T20:41:10.647Z,97210.97
2023-12-23T20:43:38.590Z,97215.50
2023-12-23T20:46:06.404Z,97172.88
2023-12-23T20:48:34.117Z,97213.59
2023-12-23T20:51:01.764Z,97165.97
2023-12-23T20:53:29.280Z,97213.78
2023-12-23T20:55:56.907Z,97208.97
2023-12-23T20:58:24.528Z,97197.69
2023-12-23T21:00:52.309Z,97210.13
2023-12-23T21:03:19.990Z,97196.56
2023-12-23T21:05:47.696Z,97194.59
2023-12-23T21:08:15.671Z,97194.78
2023-12-23T21:10:43.219Z,97202.06
2023-12-23T21:13:12.511Z,97199.09
2023-12-23T21:15:40.045Z,97202.44
2023-12-23T21:18:07.562Z,97190.78
2023-12-23T21:20:35.282Z,97166.53
2023-12-23T21:23:02.980Z,97203.13
2023-12-23T21:25:30.742Z,97193.00
2023-12-23T21:27:58.295Z,97180.59
2023-12-23T21:30:26.724Z,97185.78
2023-12-23T21:32:55.141Z,97187.00
2023-12-23T21:35:22.870Z,97192.00
2023-12-23T21:37:50.532Z,97149.91
2023-12-23T21:40:18.511Z,97173.25
2023-12-23T21:42:45.927Z,97179.41
2023-12-23T21:45:13.501Z,97168.56
2023-12-23T21:47:48.634Z,97174.03
2023-12-23T21:50:16.673Z,97179.03
2023-12-23T21:52:46.670Z,97178.25
2023-12-23T21:55:14.429Z,97153.19
2023-12-23T21:57:43.398Z,97137.84
2023-12-23T22:00:11.456Z,97157.97
2023-12-23T22:02:41.761Z,97157.78
2023-12-23T22:05:10.036Z,97143.16
2023-12-23T22:07:37.835Z,97149.31
2023-12-23T22:10:05.987Z,97135.78
2023-12-23T22:12:33.403Z,97098.53
2023-12-23T22:15:00.850Z,97134.00
2023-12-23T22:17:28.511Z,97145.03
2023-12-23T22:19:56.371Z,97123.16
2023-12-23T22:22:23.855Z,97131.91
2023-12-23T22:24:54.270Z,97139.31
2023-12-23T22:27:22.311Z,97121.88
2023-12-23T22:29:50.054Z,97073.19
2023-12-23T22:32:17.798Z,97109.88
2023-12-23T22:34:45.390Z,97141.78
2023-12-23T22:37:12.841Z,97136.31
2023-12-23T22:39:40.752Z,97122.19
2023-12-23T22:42:08.416Z,97106.00
2023-12-23T22:44:35.882Z,97090.22
2023-12-23T22:47:03.498Z,97091.00
2023-12-23T22:49:31.083Z,97042.94
2023-12-23T22:51:59.306Z,97091.28
2023-12-23T22:54:26.839Z,97087.94
2023-12-23T22:56:54.320Z,97091.03
2023-12-23T22:59:23.208Z,97105.03
2023-12-23T23:01:50.590Z,97066.25
2023-12-23T23:04:19.173Z,97085.91
2023-12-23T23:06:46.854Z,97102.56
2023-12-23T23:09:17.113Z,97081.09
2023-12-23T23:11:44.976Z,97057.84
2023-12-23T23:14:12.666Z,97088.31
2023-12-23T23:16:40.378Z,97083.75
2023-12-23T23:19:09.375Z,97065.06
2023-12-23T23:21:37.452Z,97070.38
2023-12-23T23:24:05.502Z,97074.69
2023-12-23T23:26:33.200Z,97058.81
2023-12-23T23:29:00.696Z,97052.59
2023-12-23T23:31:28.137Z,97049.41
2023-12-23T23:33:55.917Z,97042.38
2023-12-23T23:36:23.561Z,97058.34
2023-12-23T23:38:51.008Z,97041.38
2023-12-23T23:41:18.615Z,97054.97
2023-12-23T23:43:46.096Z,97048.81
2023-12-23T23:46:17.346Z,97051.00
2023-12-23T23:48:45.764Z,97053.03
2023-12-23T23:51:21.024Z,97063.03
2023-12-23T23:53:49.124Z,97038.03
2023-12-23T23:56:20.393Z,97053.22
2023-12-23T23:58:49.445Z,97049.84
